sensor_id;sensor_type;location;lat;lon;timestamp;P1;durP1;ratioP1;P2;durP2;ratioP2
20314;SDS011;10315;50.958;13.080;2023-03-05T00:02:50;7.23;;;2.73;;
20314;SDS011;10315;50.958;13.080;2023-03-05T00:12:52;9.50;;;3.07;;
20314;SDS011;10315;50.958;13.080;2023-03-05T00:22:55;5.07;;;2.17;;
20314;SDS011;10315;50.958;13.080;2023-03-05T00:32:56;7.30;;;2.50;;
20314;SDS011;10315;50.958;13.080;2023-03-05T00:43:00;13.33;;;2.23;;
20314;SDS011;10315;50.958;13.080;2023-03-05T00:53:02;7.93;;;3.30;;
20314;SDS011;10315;50.958;13.080;2023-03-05T01:03:05;9.13;;;2.40;;
20314;SDS011;10315;50.958;13.080;2023-03-05T01:13:07;12.10;;;3.03;;
20314;SDS011;10315;50.958;13.080;2023-03-05T01:23:10;15.43;;;3.43;;
20314;SDS011;10315;50.958;13.080;2023-03-05T01:33:11;8.07;;;4.20;;
20314;SDS011;10315;50.958;13.080;2023-03-05T01:43:24;15.27;;;4.00;;
20314;SDS011;10315;50.958;13.080;2023-03-05T01:53:27;11.90;;;4.07;;
20314;SDS011;10315;50.958;13.080;2023-03-05T02:03:31;6.70;;;3.07;;
20314;SDS011;10315;50.958;13.080;2023-03-05T02:13:34;9.10;;;2.93;;
20314;SDS011;10315;50.958;13.080;2023-03-05T02:23:41;6.87;;;2.10;;
20314;SDS011;10315;50.958;13.080;2023-03-05T02:33:42;5.77;;;1.37;;
20314;SDS011;10315;50.958;13.080;2023-03-05T02:43:46;2.10;;;1.27;;
20314;SDS011;10315;50.958;13.080;2023-03-05T02:53:47;3.20;;;1.13;;
20314;SDS011;10315;50.958;13.080;2023-03-05T03:03:50;1.40;;;1.30;;
20314;SDS011;10315;50.958;13.080;2023-03-05T03:13:52;2.10;;;1.90;;
20314;SDS011;10315;50.958;13.080;2023-03-05T03:23:55;5.80;;;1.97;;
20314;SDS011;10315;50.958;13.080;2023-03-05T03:33:56;9.60;;;2.17;;
20314;SDS011;10315;50.958;13.080;2023-03-05T03:43:59;5.07;;;2.30;;
20314;SDS011;10315;50.958;13.080;2023-03-05T03:54:02;8.57;;;1.80;;
20314;SDS011;10315;50.958;13.080;2023-03-05T04:04:05;9.93;;;2.07;;
20314;SDS011;10315;50.958;13.080;2023-03-05T04:14:07;5.10;;;1.50;;
20314;SDS011;10315;50.958;13.080;2023-03-05T04:24:10;5.97;;;1.33;;
20314;SDS011;10315;50.958;13.080;2023-03-05T04:34:12;3.70;;;1.47;;
20314;SDS011;10315;50.958;13.080;2023-03-05T04:44:15;1.57;;;1.23;;
20314;SDS011;10315;50.958;13.080;2023-03-05T04:54:18;6.77;;;1.80;;
20314;SDS011;10315;50.958;13.080;2023-03-05T05:04:21;6.50;;;2.00;;
20314;SDS011;10315;50.958;13.080;2023-03-05T05:14:24;6.30;;;2.50;;
20314;SDS011;10315;50.958;13.080;2023-03-05T05:24:27;2.90;;;1.93;;
20314;SDS011;10315;50.958;13.080;2023-03-05T05:34:28;3.30;;;1.67;;
20314;SDS011;10315;50.958;13.080;2023-03-05T05:44:31;5.20;;;1.40;;
20314;SDS011;10315;50.958;13.080;2023-03-05T05:54:33;2.83;;;0.93;;
20314;SDS011;10315;50.958;13.080;2023-03-05T06:04:36;2.80;;;0.80;;
20314;SDS011;10315;50.958;13.080;2023-03-05T06:14:39;0.70;;;0.70;;
20314;SDS011;10315;50.958;13.080;2023-03-05T06:24:42;2.40;;;1.10;;
20314;SDS011;10315;50.958;13.080;2023-03-05T06:34:43;1.23;;;1.10;;
20314;SDS011;10315;50.958;13.080;2023-03-05T06:44:46;1.00;;;0.83;;
20314;SDS011;10315;50.958;13.080;2023-03-05T06:54:48;4.83;;;0.93;;
20314;SDS011;10315;50.958;13.080;2023-03-05T07:04:51;2.93;;;1.50;;
20314;SDS011;10315;50.958;13.080;2023-03-05T07:14:52;2.40;;;1.60;;
20314;SDS011;10315;50.958;13.080;2023-03-05T07:25:13;3.10;;;1.13;;
20314;SDS011;10315;50.958;13.080;2023-03-05T07:35:18;2.60;;;1.30;;
20314;SDS011;10315;50.958;13.080;2023-03-05T07:45:21;2.07;;;1.10;;
20314;SDS011;10315;50.958;13.080;2023-03-05T07:55:22;4.00;;;1.20;;
20314;SDS011;10315;50.958;13.080;2023-03-05T08:05:25;3.27;;;1.10;;
20314;SDS011;10315;50.958;13.080;2023-03-05T08:15:28;4.67;;;1.43;;
20314;SDS011;10315;50.958;13.080;2023-03-05T08:25:31;6.23;;;1.10;;
20314;SDS011;10315;50.958;13.080;2023-03-05T08:35:33;6.87;;;1.97;;
20314;SDS011;10315;50.958;13.080;2023-03-05T08:45:36;6.93;;;1.20;;
20314;SDS011;10315;50.958;13.080;2023-03-05T08:55:39;1.93;;;1.27;;
20314;SDS011;10315;50.958;13.080;2023-03-05T09:05:44;2.40;;;1.67;;
20314;SDS011;10315;50.958;13.080;2023-03-05T09:15:52;4.33;;;1.60;;
20314;SDS011;10315;50.958;13.080;2023-03-05T09:25:55;2.40;;;1.80;;
20314;SDS011;10315;50.958;13.080;2023-03-05T09:35:57;3.63;;;1.80;;
20314;SDS011;10315;50.958;13.080;2023-03-05T09:46:20;3.20;;;2.43;;
20314;SDS011;10315;50.958;13.080;2023-03-05T09:56:29;4.40;;;1.93;;
20314;SDS011;10315;50.958;13.080;2023-03-05T10:06:36;5.23;;;2.60;;
20314;SDS011;10315;50.958;13.080;2023-03-05T10:27:24;5.33;;;2.37;;
20314;SDS011;10315;50.958;13.080;2023-03-05T10:37:57;5.83;;;3.30;;
20314;SDS011;10315;50.958;13.080;2023-03-05T10:48:15;4.23;;;1.97;;
20314;SDS011;10315;50.958;13.080;2023-03-05T10:58:25;4.00;;;1.53;;
20314;SDS011;10315;50.958;13.080;2023-03-05T11:08:30;2.00;;;1.63;;
20314;SDS011;10315;50.958;13.080;2023-03-05T11:18:33;2.70;;;1.93;;
20314;SDS011;10315;50.958;13.080;2023-03-05T11:28:37;2.77;;;2.00;;
20314;SDS011;10315;50.958;13.080;2023-03-05T11:38:49;3.60;;;2.03;;
20314;SDS011;10315;50.958;13.080;2023-03-05T11:48:55;3.60;;;2.10;;
20314;SDS011;10315;50.958;13.080;2023-03-05T11:58:58;6.40;;;2.50;;
20314;SDS011;10315;50.958;13.080;2023-03-05T12:09:13;3.63;;;1.90;;
20314;SDS011;10315;50.958;13.080;2023-03-05T12:19:26;5.00;;;1.90;;
20314;SDS011;10315;50.958;13.080;2023-03-05T12:29:43;6.23;;;2.30;;
20314;SDS011;10315;50.958;13.080;2023-03-05T12:39:47;7.00;;;2.53;;
20314;SDS011;10315;50.958;13.080;2023-03-05T12:49:58;5.90;;;2.30;;
20314;SDS011;10315;50.958;13.080;2023-03-05T13:00:00;5.47;;;1.90;;
20314;SDS011;10315;50.958;13.080;2023-03-05T13:20:26;6.50;;;1.97;;
20314;SDS011;10315;50.958;13.080;2023-03-05T13:30:31;3.93;;;1.93;;
20314;SDS011;10315;50.958;13.080;2023-03-05T13:40:33;3.07;;;1.90;;
20314;SDS011;10315;50.958;13.080;2023-03-05T13:50:37;2.33;;;1.63;;
20314;SDS011;10315;50.958;13.080;2023-03-05T14:00:40;2.73;;;2.20;;
20314;SDS011;10315;50.958;13.080;2023-03-05T14:10:43;2.73;;;2.00;;
20314;SDS011;10315;50.958;13.080;2023-03-05T14:20:57;2.27;;;1.50;;
20314;SDS011;10315;50.958;13.080;2023-03-05T14:31:03;3.23;;;2.00;;
20314;SDS011;10315;50.958;13.080;2023-03-05T14:41:18;2.40;;;1.73;;
20314;SDS011;10315;50.958;13.080;2023-03-05T14:51:25;5.40;;;1.80;;
20314;SDS011;10315;50.958;13.080;2023-03-05T15:01:28;1.60;;;1.50;;
20314;SDS011;10315;50.958;13.080;2023-03-05T15:11:31;2.80;;;1.43;;
20314;SDS011;10315;50.958;13.080;2023-03-05T15:21:32;3.83;;;2.17;;
20314;SDS011;10315;50.958;13.080;2023-03-05T15:31:35;4.23;;;2.07;;
20314;SDS011;10315;50.958;13.080;2023-03-05T15:41:39;3.63;;;2.13;;
20314;SDS011;10315;50.958;13.080;2023-03-05T15:51:42;3.93;;;2.00;;
20314;SDS011;10315;50.958;13.080;2023-03-05T16:01:45;4.23;;;1.90;;
20314;SDS011;10315;50.958;13.080;2023-03-05T16:11:54;3.67;;;2.20;;
20314;SDS011;10315;50.958;13.080;2023-03-05T16:21:56;9.03;;;2.43;;
20314;SDS011;10315;50.958;13.080;2023-03-05T16:31:59;3.63;;;2.07;;
20314;SDS011;10315;50.958;13.080;2023-03-05T16:42:02;7.17;;;2.80;;
20314;SDS011;10315;50.958;13.080;2023-03-05T16:52:06;3.57;;;2.80;;
20314;SDS011;10315;50.958;13.080;2023-03-05T17:02:10;7.37;;;4.07;;
20314;SDS011;10315;50.958;13.080;2023-03-05T17:12:15;6.00;;;2.20;;
20314;SDS011;10315;50.958;13.080;2023-03-05T17:22:17;3.17;;;2.60;;
20314;SDS011;10315;50.958;13.080;2023-03-05T17:32:20;4.83;;;2.53;;
20314;SDS011;10315;50.958;13.080;2023-03-05T17:42:21;8.37;;;2.63;;
20314;SDS011;10315;50.958;13.080;2023-03-05T17:52:24;2.00;;;1.80;;
20314;SDS011;10315;50.958;13.080;2023-03-05T18:02:26;4.13;;;2.53;;
20314;SDS011;10315;50.958;13.080;2023-03-05T18:12:29;9.17;;;2.33;;
20314;SDS011;10315;50.958;13.080;2023-03-05T18:22:31;3.70;;;2.30;;
20314;SDS011;10315;50.958;13.080;2023-03-05T18:32:34;6.53;;;3.30;;
20314;SDS011;10315;50.958;13.080;2023-03-05T18:42:36;6.13;;;3.00;;
20314;SDS011;10315;50.958;13.080;2023-03-05T18:52:39;8.17;;;2.70;;
20314;SDS011;10315;50.958;13.080;2023-03-05T19:02:41;6.83;;;3.70;;
20314;SDS011;10315;50.958;13.080;2023-03-05T19:12:44;6.90;;;2.73;;
20314;SDS011;10315;50.958;13.080;2023-03-05T19:22:49;8.57;;;4.40;;
20314;SDS011;10315;50.958;13.080;2023-03-05T19:32:52;7.97;;;3.87;;
20314;SDS011;10315;50.958;13.080;2023-03-05T19:42:54;6.37;;;3.40;;
20314;SDS011;10315;50.958;13.080;2023-03-05T19:52:58;8.13;;;4.07;;
20314;SDS011;10315;50.958;13.080;2023-03-05T20:03:00;7.87;;;4.07;;
20314;SDS011;10315;50.958;13.080;2023-03-05T20:13:03;8.83;;;3.70;;
20314;SDS011;10315;50.958;13.080;2023-03-05T20:23:04;9.97;;;4.47;;
20314;SDS011;10315;50.958;13.080;2023-03-05T20:33:07;4.43;;;2.73;;
20314;SDS011;10315;50.958;13.080;2023-03-05T20:43:09;8.57;;;6.33;;
20314;SDS011;10315;50.958;13.080;2023-03-05T20:53:12;8.43;;;5.63;;
20314;SDS011;10315;50.958;13.080;2023-03-05T21:03:14;6.83;;;3.00;;
20314;SDS011;10315;50.958;13.080;2023-03-05T21:13:17;7.10;;;4.57;;
20314;SDS011;10315;50.958;13.080;2023-03-05T21:23:21;7.73;;;3.07;;
20314;SDS011;10315;50.958;13.080;2023-03-05T21:33:26;5.07;;;2.60;;
20314;SDS011;10315;50.958;13.080;2023-03-05T21:43:29;6.27;;;3.37;;
20314;SDS011;10315;50.958;13.080;2023-03-05T21:53:32;5.83;;;3.40;;
20314;SDS011;10315;50.958;13.080;2023-03-05T22:03:34;4.73;;;2.73;;
20314;SDS011;10315;50.958;13.080;2023-03-05T22:13:37;12.23;;;2.93;;
20314;SDS011;10315;50.958;13.080;2023-03-05T22:23:39;5.23;;;2.60;;
20314;SDS011;10315;50.958;13.080;2023-03-05T22:33:42;3.93;;;2.20;;
20314;SDS011;10315;50.958;13.080;2023-03-05T22:43:44;6.63;;;2.97;;
20314;SDS011;10315;50.958;13.080;2023-03-05T22:53:47;6.87;;;3.07;;
20314;SDS011;10315;50.958;13.080;2023-03-05T23:03:51;4.50;;;2.50;;
20314;SDS011;10315;50.958;13.080;2023-03-05T23:14:13;5.07;;;2.37;;
20314;SDS011;10315;50.958;13.080;2023-03-05T23:24:14;6.03;;;3.20;;
20314;SDS011;10315;50.958;13.080;2023-03-05T23:34:23;8.50;;;3.60;;
20314;SDS011;10315;50.958;13.080;2023-03-05T23:44:25;9.90;;;4.03;;
20314;SDS011;10315;50.958;13.080;2023-03-05T23:54:28;7.97;;;4.30;;
